BVX177 FMEE-FMMI
Flight info
| Callsign | BVX177 |
|---|---|
| Flight time | 1h 9m |
| Altitude | 38000 |
| Route | LAKAZ DCT RERON DCT UNKIK DCT GODAT DCT TIGUR DCT TE TE1V |
| Aircraft | A319/M-SDE3FGHIRWY/LB1 |
Departure
| Time | 2026-04-28 11:33 |
|---|---|
| Airport | Roland Garros Airport (FMEE) |
Arrival
| Time | 2026-04-28 12:43 |
|---|---|
| Airport | Ivato International Airport (FMMI) |
| Time | Latitude | Longitude | Altitude | Speed | Heading |
|---|---|---|---|---|---|
| 2026-04-28 11:15 | -20.89143 | 55.51353 | 68 ft | 0 kts | 206° |
| 2026-04-28 11:28 | -20.89135 | 55.51358 | 64 ft | 4 kts | 208° |
| 2026-04-28 11:28 | -20.89111 | 55.51372 | 70 ft | 4 kts | 216° |
| 2026-04-28 11:28 | -20.89091 | 55.51391 | 68 ft | 4 kts | 229° |
| 2026-04-28 11:29 | -20.89077 | 55.51414 | 71 ft | 4 kts | 267° |
| 2026-04-28 11:29 | -20.89078 | 55.51427 | 68 ft | 0 kts | 300° |
| 2026-04-28 11:31 | -20.89069 | 55.51409 | 73 ft | 6 kts | 296° |
| 2026-04-28 11:31 | -20.89043 | 55.51353 | 72 ft | 10 kts | 296° |
| 2026-04-28 11:31 | -20.89011 | 55.51284 | 72 ft | 11 kts | 296° |
| 2026-04-28 11:32 | -20.88973 | 55.51208 | 75 ft | 12 kts | 310° |
| 2026-04-28 11:32 | -20.88893 | 55.51169 | 70 ft | 13 kts | 342° |
| 2026-04-28 11:32 | -20.88784 | 55.51128 | 59 ft | 12 kts | 341° |
| 2026-04-28 11:32 | -20.88743 | 55.51166 | 61 ft | 9 kts | 89° |
| 2026-04-28 11:33 | -20.88778 | 55.51347 | 59 ft | 52 kts | 102° |
| 2026-04-28 11:33 | -20.88897 | 55.51932 | 52 ft | 109 kts | 102° |
| 2026-04-28 11:33 | -20.89094 | 55.52902 | 126 ft | 150 kts | 105° |
| 2026-04-28 11:33 | -20.89318 | 55.54002 | 703 ft | 152 kts | 103° |
| 2026-04-28 11:34 | -20.89545 | 55.55107 | 1351 ft | 152 kts | 101° |
| 2026-04-28 11:34 | -20.89695 | 55.56233 | 1924 ft | 159 kts | 84° |
| 2026-04-28 11:34 | -20.89108 | 55.57306 | 2193 ft | 185 kts | 40° |
| 2026-04-28 11:34 | -20.87797 | 55.57724 | 2450 ft | 217 kts | 0° |
| 2026-04-28 11:35 | -20.86260 | 55.57319 | 2807 ft | 244 kts | 334° |
| 2026-04-28 11:35 | -20.84994 | 55.55995 | 3338 ft | 270 kts | 298° |
| 2026-04-28 11:35 | -20.84466 | 55.54032 | 4211 ft | 278 kts | 282° |
| 2026-04-28 11:35 | -20.84097 | 55.51982 | 5131 ft | 283 kts | 281° |
| 2026-04-28 11:36 | -20.83744 | 55.49895 | 6037 ft | 287 kts | 281° |
| 2026-04-28 11:36 | -20.83391 | 55.47781 | 6961 ft | 291 kts | 281° |
| 2026-04-28 11:36 | -20.83029 | 55.45646 | 7861 ft | 293 kts | 281° |
| 2026-04-28 11:36 | -20.82657 | 55.43492 | 8737 ft | 296 kts | 281° |
| 2026-04-28 11:37 | -20.82277 | 55.41321 | 9600 ft | 299 kts | 281° |
| 2026-04-28 11:37 | -20.81889 | 55.39121 | 10262 ft | 309 kts | 281° |
| 2026-04-28 11:37 | -20.81477 | 55.36778 | 10509 ft | 332 kts | 281° |
| 2026-04-28 11:37 | -20.81041 | 55.34300 | 10671 ft | 355 kts | 281° |
| 2026-04-28 11:38 | -20.80566 | 55.31612 | 10993 ft | 369 kts | 281° |
| 2026-04-28 11:38 | -20.80083 | 55.28896 | 11566 ft | 374 kts | 281° |
| 2026-04-28 11:38 | -20.79594 | 55.26154 | 12190 ft | 377 kts | 281° |
| 2026-04-28 11:38 | -20.79106 | 55.23429 | 12806 ft | 380 kts | 281° |
| 2026-04-28 11:39 | -20.78606 | 55.20644 | 13424 ft | 383 kts | 280° |
| 2026-04-28 11:39 | -20.78103 | 55.17836 | 13995 ft | 386 kts | 280° |
| 2026-04-28 11:39 | -20.77600 | 55.15008 | 14556 ft | 388 kts | 280° |
| 2026-04-28 11:39 | -20.77099 | 55.12170 | 15128 ft | 390 kts | 280° |
| 2026-04-28 11:40 | -20.76591 | 55.09312 | 15691 ft | 392 kts | 280° |
| 2026-04-28 11:40 | -20.76077 | 55.06445 | 16255 ft | 394 kts | 280° |
| 2026-04-28 11:40 | -20.75557 | 55.03557 | 16830 ft | 397 kts | 280° |
| 2026-04-28 11:40 | -20.75034 | 55.00652 | 17406 ft | 399 kts | 280° |
| 2026-04-28 11:41 | -20.74509 | 54.97735 | 17988 ft | 402 kts | 280° |
| 2026-04-28 11:41 | -20.73980 | 54.94797 | 18510 ft | 404 kts | 280° |
| 2026-04-28 11:41 | -20.73447 | 54.91839 | 19010 ft | 406 kts | 280° |
| 2026-04-28 11:41 | -20.72912 | 54.88872 | 19478 ft | 408 kts | 280° |
| 2026-04-28 11:42 | -20.72375 | 54.85883 | 19933 ft | 411 kts | 280° |
| 2026-04-28 11:42 | -20.71836 | 54.82873 | 20373 ft | 414 kts | 280° |
| 2026-04-28 11:42 | -20.71239 | 54.79850 | 20822 ft | 417 kts | 282° |
| 2026-04-28 11:42 | -20.70542 | 54.76831 | 21222 ft | 420 kts | 283° |
| 2026-04-28 11:43 | -20.69777 | 54.73812 | 21630 ft | 422 kts | 284° |
| 2026-04-28 11:43 | -20.68980 | 54.70782 | 22029 ft | 425 kts | 284° |
| 2026-04-28 11:43 | -20.68179 | 54.67737 | 22409 ft | 428 kts | 284° |
| 2026-04-28 11:43 | -20.67651 | 54.65702 | 22655 ft | 429 kts | 284° |
| 2026-04-28 11:44 | -20.66867 | 54.62619 | 23019 ft | 432 kts | 283° |
| 2026-04-28 11:44 | -20.66094 | 54.59506 | 23381 ft | 435 kts | 283° |
| 2026-04-28 11:44 | -20.65326 | 54.56375 | 23699 ft | 437 kts | 283° |
| 2026-04-28 11:44 | -20.64556 | 54.53223 | 23981 ft | 440 kts | 283° |
| 2026-04-28 11:45 | -20.63778 | 54.50048 | 24249 ft | 443 kts | 283° |
| 2026-04-28 11:45 | -20.62992 | 54.46857 | 24516 ft | 446 kts | 283° |
| 2026-04-28 11:45 | -20.62193 | 54.43645 | 24776 ft | 449 kts | 282° |
| 2026-04-28 11:45 | -20.61388 | 54.40419 | 25039 ft | 451 kts | 282° |
| 2026-04-28 11:46 | -20.60576 | 54.37170 | 25297 ft | 454 kts | 282° |
| 2026-04-28 11:46 | -20.59762 | 54.33908 | 25562 ft | 456 kts | 282° |
| 2026-04-28 11:46 | -20.58940 | 54.30618 | 25817 ft | 459 kts | 282° |
| 2026-04-28 11:46 | -20.58127 | 54.27356 | 26073 ft | 461 kts | 282° |
| 2026-04-28 11:47 | -20.57288 | 54.23993 | 26317 ft | 464 kts | 281° |
| 2026-04-28 11:47 | -20.56467 | 54.20706 | 26560 ft | 466 kts | 281° |
| 2026-04-28 11:47 | -20.55631 | 54.17357 | 26808 ft | 468 kts | 281° |
| 2026-04-28 11:47 | -20.54792 | 54.13998 | 27044 ft | 470 kts | 281° |
| 2026-04-28 11:48 | -20.53948 | 54.10619 | 27293 ft | 472 kts | 281° |
| 2026-04-28 11:48 | -20.53088 | 54.07178 | 27525 ft | 474 kts | 281° |
| 2026-04-28 11:48 | -20.52235 | 54.03774 | 27756 ft | 476 kts | 280° |
| 2026-04-28 11:48 | -20.51387 | 54.00399 | 27983 ft | 479 kts | 280° |
| 2026-04-28 11:49 | -20.50523 | 53.96965 | 28209 ft | 481 kts | 280° |
| 2026-04-28 11:49 | -20.49653 | 53.93512 | 28420 ft | 483 kts | 280° |
| 2026-04-28 11:49 | -20.48780 | 53.90050 | 28640 ft | 485 kts | 280° |
| 2026-04-28 11:49 | -20.47901 | 53.86571 | 28912 ft | 485 kts | 279° |
| 2026-04-28 11:50 | -20.47024 | 53.83101 | 29236 ft | 484 kts | 279° |
| 2026-04-28 11:50 | -20.46148 | 53.79630 | 29567 ft | 484 kts | 279° |
| 2026-04-28 11:50 | -20.45271 | 53.76170 | 29890 ft | 484 kts | 279° |
| 2026-04-28 11:50 | -20.44392 | 53.72706 | 30180 ft | 484 kts | 279° |
| 2026-04-28 11:51 | -20.43514 | 53.69244 | 30464 ft | 483 kts | 279° |
| 2026-04-28 11:51 | -20.42635 | 53.65785 | 30755 ft | 482 kts | 279° |
| 2026-04-28 11:51 | -20.41759 | 53.62341 | 31080 ft | 481 kts | 279° |
| 2026-04-28 11:51 | -20.40885 | 53.58899 | 31394 ft | 481 kts | 279° |
| 2026-04-28 11:52 | -20.40011 | 53.55462 | 31717 ft | 480 kts | 279° |
| 2026-04-28 11:52 | -20.39143 | 53.52038 | 32049 ft | 479 kts | 279° |
| 2026-04-28 11:52 | -20.38287 | 53.48660 | 32388 ft | 478 kts | 279° |
| 2026-04-28 11:52 | -20.37419 | 53.45244 | 32748 ft | 476 kts | 279° |
| 2026-04-28 11:53 | -20.36552 | 53.41844 | 33113 ft | 475 kts | 279° |
| 2026-04-28 11:53 | -20.35682 | 53.38448 | 33478 ft | 475 kts | 279° |
| 2026-04-28 11:53 | -20.34810 | 53.35057 | 33857 ft | 474 kts | 279° |
| 2026-04-28 11:53 | -20.33941 | 53.31676 | 34198 ft | 472 kts | 279° |
| 2026-04-28 11:54 | -20.33078 | 53.28303 | 34554 ft | 471 kts | 279° |
| 2026-04-28 11:54 | -20.32220 | 53.24949 | 34934 ft | 468 kts | 279° |
| 2026-04-28 11:54 | -20.31365 | 53.21610 | 35321 ft | 466 kts | 279° |
| 2026-04-28 11:54 | -20.30513 | 53.18293 | 35712 ft | 463 kts | 279° |
| 2026-04-28 11:55 | -20.29666 | 53.14993 | 36096 ft | 460 kts | 279° |
| 2026-04-28 11:55 | -20.28823 | 53.11715 | 36469 ft | 458 kts | 279° |
| 2026-04-28 11:55 | -20.27981 | 53.08444 | 36833 ft | 456 kts | 279° |
| 2026-04-28 11:55 | -20.27146 | 53.05202 | 37200 ft | 453 kts | 279° |
| 2026-04-28 11:56 | -20.26312 | 53.01970 | 37564 ft | 451 kts | 279° |
| 2026-04-28 11:56 | -20.25483 | 52.98755 | 37839 ft | 450 kts | 279° |
| 2026-04-28 11:56 | -20.23837 | 52.92376 | 37903 ft | 444 kts | 279° |
| 2026-04-28 11:57 | -20.22204 | 52.86042 | 37904 ft | 443 kts | 279° |
| 2026-04-28 11:57 | -20.20569 | 52.79715 | 37907 ft | 443 kts | 279° |
| 2026-04-28 11:58 | -20.18930 | 52.73395 | 37903 ft | 443 kts | 279° |
| 2026-04-28 11:58 | -20.17283 | 52.67072 | 37905 ft | 443 kts | 279° |
| 2026-04-28 11:59 | -20.15648 | 52.60791 | 37901 ft | 443 kts | 280° |
| 2026-04-28 11:59 | -20.14001 | 52.54468 | 37908 ft | 443 kts | 280° |
| 2026-04-28 12:00 | -20.12349 | 52.48149 | 37910 ft | 443 kts | 280° |
| 2026-04-28 12:00 | -20.10696 | 52.41826 | 37910 ft | 443 kts | 280° |
| 2026-04-28 12:01 | -20.09047 | 52.35509 | 37911 ft | 443 kts | 280° |
| 2026-04-28 12:01 | -20.07389 | 52.29193 | 37912 ft | 443 kts | 280° |
| 2026-04-28 12:02 | -20.05728 | 52.22874 | 37912 ft | 443 kts | 280° |
| 2026-04-28 12:02 | -20.04061 | 52.16556 | 37912 ft | 443 kts | 280° |
| 2026-04-28 12:03 | -20.02399 | 52.10243 | 37917 ft | 443 kts | 280° |
| 2026-04-28 12:03 | -20.00733 | 52.03931 | 37916 ft | 443 kts | 280° |
| 2026-04-28 12:04 | -19.99058 | 51.97617 | 37914 ft | 444 kts | 281° |
| 2026-04-28 12:04 | -19.97387 | 51.91295 | 37913 ft | 444 kts | 281° |
| 2026-04-28 12:05 | -19.95712 | 51.84982 | 37918 ft | 444 kts | 281° |
| 2026-04-28 12:05 | -19.94042 | 51.78708 | 37921 ft | 444 kts | 281° |
| 2026-04-28 12:06 | -19.92358 | 51.72393 | 37919 ft | 444 kts | 281° |
| 2026-04-28 12:06 | -19.90683 | 51.66077 | 37918 ft | 444 kts | 281° |
| 2026-04-28 12:07 | -19.88999 | 51.59766 | 37919 ft | 444 kts | 281° |
| 2026-04-28 12:07 | -19.87315 | 51.53451 | 37918 ft | 444 kts | 281° |
| 2026-04-28 12:08 | -19.85630 | 51.47140 | 37920 ft | 444 kts | 281° |
| 2026-04-28 12:08 | -19.83932 | 51.40831 | 37923 ft | 444 kts | 281° |
| 2026-04-28 12:09 | -19.82236 | 51.34523 | 37922 ft | 444 kts | 281° |
| 2026-04-28 12:09 | -19.80535 | 51.28215 | 37920 ft | 444 kts | 281° |
| 2026-04-28 12:10 | -19.78835 | 51.21908 | 37918 ft | 444 kts | 281° |
| 2026-04-28 12:10 | -19.77138 | 51.15602 | 37920 ft | 444 kts | 281° |
| 2026-04-28 12:11 | -19.75435 | 51.09299 | 37919 ft | 444 kts | 281° |
| 2026-04-28 12:11 | -19.73721 | 51.03003 | 37918 ft | 444 kts | 282° |
| 2026-04-28 12:12 | -19.72012 | 50.96706 | 37919 ft | 444 kts | 282° |
| 2026-04-28 12:12 | -19.70309 | 50.90412 | 37918 ft | 444 kts | 282° |
| 2026-04-28 12:13 | -19.68603 | 50.84118 | 37916 ft | 444 kts | 282° |
| 2026-04-28 12:13 | -19.66891 | 50.77823 | 37919 ft | 444 kts | 282° |
| 2026-04-28 12:14 | -19.65180 | 50.71579 | 37918 ft | 444 kts | 282° |
| 2026-04-28 12:14 | -19.63462 | 50.65291 | 37917 ft | 444 kts | 282° |
| 2026-04-28 12:15 | -19.61742 | 50.58989 | 37912 ft | 444 kts | 282° |
| 2026-04-28 12:15 | -19.60027 | 50.52722 | 37912 ft | 444 kts | 282° |
| 2026-04-28 12:16 | -19.58315 | 50.46463 | 37911 ft | 444 kts | 282° |
| 2026-04-28 12:16 | -19.56580 | 50.40167 | 37911 ft | 444 kts | 282° |
| 2026-04-28 12:17 | -19.54849 | 50.33872 | 37913 ft | 444 kts | 282° |
| 2026-04-28 12:17 | -19.53123 | 50.27594 | 37910 ft | 444 kts | 282° |
| 2026-04-28 12:18 | -19.51393 | 50.21318 | 37911 ft | 444 kts | 282° |
| 2026-04-28 12:18 | -19.49667 | 50.15082 | 37910 ft | 444 kts | 282° |
| 2026-04-28 12:19 | -19.47928 | 50.08807 | 37907 ft | 444 kts | 282° |
| 2026-04-28 12:19 | -19.46187 | 50.02530 | 37908 ft | 444 kts | 282° |
| 2026-04-28 12:20 | -19.44416 | 49.96259 | 37906 ft | 444 kts | 282° |
| 2026-04-28 12:20 | -19.42676 | 49.89968 | 37910 ft | 445 kts | 282° |
| 2026-04-28 12:21 | -19.40947 | 49.83680 | 37912 ft | 445 kts | 282° |
| 2026-04-28 12:21 | -19.39198 | 49.77383 | 37918 ft | 445 kts | 283° |
| 2026-04-28 12:22 | -19.37440 | 49.71095 | 37919 ft | 445 kts | 283° |
| 2026-04-28 12:22 | -19.35677 | 49.64808 | 37919 ft | 445 kts | 283° |
| 2026-04-28 12:23 | -19.33911 | 49.58526 | 37919 ft | 445 kts | 283° |
| 2026-04-28 12:23 | -19.32151 | 49.52245 | 37920 ft | 445 kts | 283° |
| 2026-04-28 12:24 | -19.30393 | 49.45961 | 37916 ft | 445 kts | 283° |
| 2026-04-28 12:24 | -19.28632 | 49.39679 | 37919 ft | 445 kts | 283° |
| 2026-04-28 12:25 | -19.26859 | 49.33392 | 37918 ft | 446 kts | 283° |
| 2026-04-28 12:25 | -19.25084 | 49.27107 | 37919 ft | 446 kts | 283° |
| 2026-04-28 12:26 | -19.23303 | 49.20818 | 37925 ft | 446 kts | 283° |
| 2026-04-28 12:26 | -19.21521 | 49.14530 | 37926 ft | 446 kts | 283° |
| 2026-04-28 12:27 | -19.19745 | 49.08247 | 37924 ft | 446 kts | 283° |
| 2026-04-28 12:27 | -19.17972 | 49.02001 | 37929 ft | 446 kts | 283° |
| 2026-04-28 12:28 | -19.16189 | 48.95719 | 37789 ft | 446 kts | 283° |
| 2026-04-28 12:28 | -19.15294 | 48.92577 | 37537 ft | 446 kts | 283° |
| 2026-04-28 12:28 | -19.14401 | 48.89432 | 37283 ft | 446 kts | 283° |
| 2026-04-28 12:29 | -19.12897 | 48.84146 | 36196 ft | 451 kts | 283° |
| 2026-04-28 12:29 | -19.11990 | 48.80955 | 35447 ft | 455 kts | 283° |
| 2026-04-28 12:29 | -19.11074 | 48.77735 | 34648 ft | 460 kts | 283° |
| 2026-04-28 12:30 | -19.10157 | 48.74520 | 33786 ft | 466 kts | 283° |
| 2026-04-28 12:30 | -19.09210 | 48.71213 | 32828 ft | 471 kts | 283° |
| 2026-04-28 12:30 | -19.08257 | 48.67885 | 31864 ft | 475 kts | 283° |
| 2026-04-28 12:30 | -19.07293 | 48.64517 | 30843 ft | 481 kts | 282° |
| 2026-04-28 12:31 | -19.06319 | 48.61118 | 29740 ft | 486 kts | 282° |
| 2026-04-28 12:31 | -19.05332 | 48.57673 | 28490 ft | 492 kts | 282° |
| 2026-04-28 12:31 | -19.04341 | 48.54204 | 27279 ft | 495 kts | 283° |
| 2026-04-28 12:31 | -19.03340 | 48.50707 | 26034 ft | 499 kts | 283° |
| 2026-04-28 12:32 | -19.02328 | 48.47186 | 24819 ft | 502 kts | 283° |
| 2026-04-28 12:32 | -19.01311 | 48.43657 | 23649 ft | 503 kts | 284° |
| 2026-04-28 12:32 | -19.00289 | 48.40119 | 22546 ft | 500 kts | 284° |
| 2026-04-28 12:32 | -18.99280 | 48.36633 | 21650 ft | 491 kts | 284° |
| 2026-04-28 12:33 | -18.98288 | 48.33212 | 20712 ft | 484 kts | 285° |
| 2026-04-28 12:33 | -18.97311 | 48.29831 | 19816 ft | 478 kts | 285° |
| 2026-04-28 12:33 | -18.96347 | 48.26494 | 18948 ft | 472 kts | 285° |
| 2026-04-28 12:33 | -18.95394 | 48.23192 | 18057 ft | 467 kts | 285° |
| 2026-04-28 12:34 | -18.94528 | 48.19912 | 17096 ft | 460 kts | 283° |
| 2026-04-28 12:34 | -18.93794 | 48.16654 | 16222 ft | 452 kts | 281° |
| 2026-04-28 12:34 | -18.93159 | 48.13466 | 15344 ft | 445 kts | 280° |
| 2026-04-28 12:34 | -18.92561 | 48.10283 | 14512 ft | 438 kts | 280° |
| 2026-04-28 12:35 | -18.91972 | 48.07156 | 13721 ft | 431 kts | 281° |
| 2026-04-28 12:35 | -18.91371 | 48.04081 | 12882 ft | 424 kts | 282° |
| 2026-04-28 12:35 | -18.90755 | 48.01070 | 12394 ft | 411 kts | 282° |
| 2026-04-28 12:35 | -18.90157 | 47.98242 | 12192 ft | 379 kts | 282° |
| 2026-04-28 12:36 | -18.89600 | 47.95633 | 12042 ft | 349 kts | 282° |
| 2026-04-28 12:36 | -18.89084 | 47.93226 | 11918 ft | 324 kts | 282° |
| 2026-04-28 12:36 | -18.88601 | 47.90963 | 11623 ft | 310 kts | 282° |
| 2026-04-28 12:36 | -18.88067 | 47.88788 | 11146 ft | 304 kts | 287° |
| 2026-04-28 12:37 | -18.87412 | 47.86678 | 10621 ft | 300 kts | 287° |
| 2026-04-28 12:37 | -18.86769 | 47.84594 | 10177 ft | 297 kts | 287° |
| 2026-04-28 12:37 | -18.86145 | 47.82558 | 9924 ft | 292 kts | 287° |
| 2026-04-28 12:37 | -18.85525 | 47.80546 | 9798 ft | 284 kts | 287° |
| 2026-04-28 12:38 | -18.84919 | 47.78592 | 9650 ft | 277 kts | 287° |
| 2026-04-28 12:38 | -18.84320 | 47.76664 | 9314 ft | 276 kts | 287° |
| 2026-04-28 12:38 | -18.83731 | 47.74740 | 8936 ft | 275 kts | 285° |
| 2026-04-28 12:38 | -18.83387 | 47.72763 | 8559 ft | 274 kts | 278° |
| 2026-04-28 12:39 | -18.83098 | 47.70779 | 8175 ft | 273 kts | 278° |
| 2026-04-28 12:39 | -18.82803 | 47.68797 | 7795 ft | 273 kts | 278° |
| 2026-04-28 12:39 | -18.82507 | 47.66816 | 7411 ft | 273 kts | 278° |
| 2026-04-28 12:39 | -18.82216 | 47.64849 | 7038 ft | 268 kts | 278° |
| 2026-04-28 12:40 | -18.81941 | 47.62965 | 6675 ft | 251 kts | 278° |
| 2026-04-28 12:40 | -18.81679 | 47.61201 | 6360 ft | 235 kts | 278° |
| 2026-04-28 12:40 | -18.81433 | 47.59551 | 6067 ft | 219 kts | 278° |
| 2026-04-28 12:40 | -18.81203 | 47.58018 | 5765 ft | 204 kts | 279° |
| 2026-04-28 12:41 | -18.80989 | 47.56592 | 5522 ft | 188 kts | 278° |
| 2026-04-28 12:41 | -18.80797 | 47.55313 | 5272 ft | 166 kts | 279° |
| 2026-04-28 12:41 | -18.80624 | 47.54160 | 5057 ft | 153 kts | 279° |
| 2026-04-28 12:41 | -18.80461 | 47.53067 | 4859 ft | 149 kts | 279° |
| 2026-04-28 12:42 | -18.80304 | 47.51998 | 4654 ft | 147 kts | 280° |
| 2026-04-28 12:42 | -18.80150 | 47.50931 | 4452 ft | 146 kts | 280° |
| 2026-04-28 12:42 | -18.80001 | 47.49872 | 4259 ft | 145 kts | 280° |
| 2026-04-28 12:42 | -18.79835 | 47.48824 | 4164 ft | 139 kts | 280° |
| 2026-04-28 12:43 | -18.79703 | 47.47957 | 4164 ft | 96 kts | 279° |
| 2026-04-28 12:43 | -18.79625 | 47.47439 | 4162 ft | 49 kts | 279° |
| 2026-04-28 12:43 | -18.79586 | 47.47180 | 4161 ft | 14 kts | 277° |
| 2026-04-28 12:43 | -18.79660 | 47.47133 | 4163 ft | 14 kts | 189° |
| 2026-04-28 12:44 | -18.79738 | 47.47131 | 4165 ft | 8 kts | 139° |
| 2026-04-28 12:44 | -18.79751 | 47.47197 | 4165 ft | 10 kts | 99° |
| 2026-04-28 12:44 | -18.79763 | 47.47275 | 4165 ft | 12 kts | 99° |
| 2026-04-28 12:44 | -18.79778 | 47.47357 | 4165 ft | 10 kts | 100° |
| 2026-04-28 12:45 | -18.79788 | 47.47425 | 4165 ft | 10 kts | 98° |
| 2026-04-28 12:45 | -18.79797 | 47.47488 | 4166 ft | 5 kts | 98° |
| 2026-04-28 12:45 | -18.79800 | 47.47507 | 4166 ft | 0 kts | 98° |
| 2026-04-28 12:45 | -18.79804 | 47.47513 | 4166 ft | 2 kts | 128° |
| 2026-04-28 12:46 | -18.79822 | 47.47511 | 4166 ft | 4 kts | 189° |
| 2026-04-28 12:46 | -18.79851 | 47.47506 | 4166 ft | 2 kts | 188° |
| 2026-04-28 12:46 | -18.79855 | 47.47505 | 4166 ft | 0 kts | 188° |